createdAt,value
2018-07-11T00:00:39.320Z,14.47
2018-07-11T00:03:08.020Z,14.45
2018-07-11T00:05:36.515Z,14.43
2018-07-11T00:08:04.919Z,15.90
2018-07-11T00:10:34.197Z,14.90
2018-07-11T00:13:02.431Z,14.50
2018-07-11T00:15:30.701Z,14.30
2018-07-11T00:17:59.437Z,14.55
2018-07-11T00:20:27.821Z,14.87
2018-07-11T00:22:55.929Z,13.98
2018-07-11T00:25:25.198Z,13.90
2018-07-11T00:27:54.420Z,14.30
2018-07-11T00:30:22.847Z,13.62
2018-07-11T00:32:51.140Z,13.93
2018-07-11T00:35:19.744Z,13.62
2018-07-11T00:37:48.201Z,13.58
2018-07-11T00:40:16.572Z,13.62
2018-07-11T00:42:45.153Z,13.70
2018-07-11T00:45:13.744Z,13.75
2018-07-11T00:47:42.114Z,12.95
2018-07-11T00:50:10.774Z,12.85
2018-07-11T00:52:38.855Z,14.60
2018-07-11T00:55:07.374Z,14.13
2018-07-11T00:57:36.977Z,13.78
2018-07-11T01:00:05.196Z,14.30
2018-07-11T01:02:33.984Z,14.10
2018-07-11T01:05:02.593Z,14.40
2018-07-11T01:07:30.808Z,13.90
2018-07-11T01:09:59.154Z,14.30
2018-07-11T01:12:27.568Z,13.90
2018-07-11T01:14:55.808Z,14.37
2018-07-11T01:17:29.740Z,13.90
2018-07-11T01:19:58.119Z,14.10
2018-07-11T01:22:26.535Z,13.13
2018-07-11T01:24:55.027Z,13.20
2018-07-11T01:27:23.711Z,13.27
2018-07-11T01:29:51.921Z,13.18
2018-07-11T01:32:20.427Z,13.18
2018-07-11T01:34:48.920Z,12.70
2018-07-11T01:37:17.110Z,14.07
2018-07-11T01:39:45.383Z,13.40
2018-07-11T01:42:13.627Z,13.70
2018-07-11T01:44:42.445Z,13.55
2018-07-11T01:47:10.821Z,13.13
2018-07-11T01:49:39.180Z,13.50
2018-07-11T01:52:18.456Z,13.18
2018-07-11T01:54:46.644Z,13.27
2018-07-11T01:57:15.022Z,13.00
2018-07-11T01:59:43.240Z,12.55
2018-07-11T02:02:11.523Z,13.08
2018-07-11T02:04:40.629Z,11.97
2018-07-11T02:07:10.058Z,12.10
2018-07-11T02:09:38.179Z,12.50
2018-07-11T02:12:06.273Z,13.10
2018-07-11T02:14:35.953Z,12.93
2018-07-11T02:17:04.811Z,12.58
2018-07-11T02:19:33.284Z,12.50
2018-07-11T02:22:03.052Z,13.00
2018-07-11T02:24:31.526Z,12.00
2018-07-11T02:26:59.949Z,12.55
2018-07-11T02:29:28.242Z,11.97
2018-07-11T02:31:56.336Z,12.00
2018-07-11T02:34:30.123Z,12.20
2018-07-11T02:36:58.651Z,12.15
2018-07-11T02:39:31.249Z,11.83
2018-07-11T02:41:59.965Z,11.45
2018-07-11T02:44:28.845Z,12.05
2018-07-11T02:47:14.012Z,11.80
2018-07-11T02:49:42.336Z,12.27
2018-07-11T02:52:10.856Z,11.78
2018-07-11T02:54:39.216Z,12.40
2018-07-11T02:57:08.643Z,11.90
2018-07-11T02:59:37.246Z,11.90
2018-07-11T03:02:05.758Z,12.05
2018-07-11T03:04:34.063Z,12.60
2018-07-11T03:07:02.461Z,11.90
2018-07-11T03:09:32.273Z,12.07
2018-07-11T03:12:01.315Z,12.50
2018-07-11T03:14:30.961Z,12.13
2018-07-11T03:16:59.218Z,11.45
2018-07-11T03:19:27.388Z,13.40
2018-07-11T03:21:56.415Z,12.47
2018-07-11T03:24:24.520Z,11.95
2018-07-11T03:26:53.442Z,11.97
2018-07-11T03:29:21.926Z,12.82
2018-07-11T03:31:50.024Z,12.40
2018-07-11T03:34:19.106Z,12.60
2018-07-11T03:36:47.123Z,13.20
2018-07-11T03:39:15.646Z,14.03
2018-07-11T03:41:44.016Z,13.50
2018-07-11T03:44:12.644Z,13.38
2018-07-11T03:46:41.459Z,14.18
2018-07-11T03:49:09.807Z,13.43
2018-07-11T03:51:38.167Z,13.30
2018-07-11T03:54:06.555Z,13.10
2018-07-11T03:56:35.161Z,13.30
2018-07-11T03:59:03.419Z,12.60
2018-07-11T04:01:31.551Z,12.80
2018-07-11T04:03:59.648Z,12.20
2018-07-11T04:06:28.348Z,14.63
2018-07-11T04:08:56.851Z,13.30
2018-07-11T04:11:25.234Z,12.78
2018-07-11T04:13:53.669Z,13.30
2018-07-11T04:16:22.133Z,13.00
2018-07-11T04:18:50.426Z,12.75
2018-07-11T04:21:18.958Z,12.65
2018-07-11T04:23:47.906Z,12.65
2018-07-11T04:26:16.360Z,13.72
2018-07-11T04:28:44.580Z,13.20
2018-07-11T04:31:12.833Z,11.33
2018-07-11T04:33:42.268Z,10.45
2018-07-11T04:36:10.536Z,11.78
2018-07-11T04:38:39.080Z,10.90
2018-07-11T04:41:07.282Z,11.33
2018-07-11T04:43:39.542Z,11.60
2018-07-11T04:46:08.077Z,12.70
2018-07-11T04:48:36.569Z,10.82
2018-07-11T04:51:04.862Z,11.85
2018-07-11T04:53:33.332Z,11.65
2018-07-11T04:56:03.752Z,11.80
2018-07-11T04:58:32.527Z,11.77
2018-07-11T05:01:00.847Z,12.07
2018-07-11T05:03:29.413Z,12.00
2018-07-11T05:05:57.719Z,12.17
2018-07-11T05:08:29.897Z,12.33
2018-07-11T05:10:58.799Z,12.43
2018-07-11T05:13:26.997Z,13.50
2018-07-11T05:15:56.015Z,11.80
2018-07-11T05:18:24.220Z,12.60
2018-07-11T05:20:52.601Z,12.70
2018-07-11T05:23:20.720Z,11.73
2018-07-11T05:25:48.967Z,12.90
2018-07-11T05:28:17.490Z,12.98
2018-07-11T05:30:45.449Z,12.03
2018-07-11T05:33:13.548Z,11.63
2018-07-11T05:35:43.182Z,11.68
2018-07-11T05:38:11.210Z,12.70
2018-07-11T05:40:40.250Z,11.50
2018-07-11T05:43:08.598Z,11.97
2018-07-11T05:45:37.611Z,11.50
2018-07-11T05:48:06.159Z,11.75
2018-07-11T05:50:34.639Z,11.10
2018-07-11T05:53:02.914Z,11.03
2018-07-11T05:55:33.270Z,11.65
2018-07-11T05:58:01.347Z,11.47
2018-07-11T06:00:29.852Z,12.33
2018-07-11T06:02:58.077Z,12.00
2018-07-11T06:05:26.494Z,12.37
2018-07-11T06:07:55.039Z,11.88
2018-07-11T06:10:24.055Z,12.43
2018-07-11T06:12:52.567Z,12.30
2018-07-11T06:15:20.778Z,12.10
2018-07-11T06:17:49.594Z,11.55
2018-07-11T06:20:18.003Z,11.73
2018-07-11T06:22:46.666Z,10.95
2018-07-11T06:25:14.969Z,11.45
2018-07-11T06:27:43.082Z,11.20
2018-07-11T06:30:13.612Z,11.20
2018-07-11T06:32:41.941Z,10.98
2018-07-11T06:35:10.224Z,10.60
2018-07-11T06:37:38.195Z,10.60
2018-07-11T06:40:07.734Z,10.60
2018-07-11T06:42:36.354Z,10.77
2018-07-11T06:45:05.152Z,11.13
2018-07-11T06:47:33.461Z,10.70
2018-07-11T06:50:01.938Z,9.85
2018-07-11T06:52:30.637Z,10.38
2018-07-11T06:54:58.865Z,10.80
2018-07-11T06:57:27.788Z,10.20
2018-07-11T06:59:56.068Z,10.30
2018-07-11T07:02:25.271Z,11.00
2018-07-11T07:04:53.397Z,10.80
2018-07-11T07:07:21.413Z,11.00
2018-07-11T07:09:49.659Z,10.60
2018-07-11T07:12:17.759Z,10.95
2018-07-11T07:14:46.054Z,10.70
2018-07-11T07:17:14.449Z,10.70
2018-07-11T07:19:42.953Z,10.75
2018-07-11T07:22:11.183Z,11.30
2018-07-11T07:24:39.430Z,9.78
2018-07-11T07:27:08.048Z,10.25
2018-07-11T07:29:36.321Z,10.67
2018-07-11T07:32:04.632Z,10.38
2018-07-11T07:34:33.248Z,10.45
2018-07-11T07:37:01.540Z,9.70
2018-07-11T07:39:30.312Z,10.20
2018-07-11T07:41:58.740Z,10.50
2018-07-11T07:44:26.710Z,8.98
2018-07-11T07:47:00.865Z,8.45
2018-07-11T07:49:30.642Z,8.60
2018-07-11T07:51:59.284Z,8.35
2018-07-11T07:54:28.103Z,8.18
2018-07-11T07:56:56.214Z,8.23
2018-07-11T07:59:25.160Z,8.27
2018-07-11T08:01:53.706Z,6.70
2018-07-11T08:04:21.999Z,6.80
2018-07-11T08:06:50.353Z,7.10
2018-07-11T08:09:18.598Z,7.50
2018-07-11T08:11:46.503Z,8.10
2018-07-11T08:14:14.790Z,7.60
2018-07-11T08:16:43.512Z,7.17
2018-07-11T08:19:12.003Z,6.75
2018-07-11T08:21:40.417Z,6.50
2018-07-11T08:24:19.855Z,7.72
2018-07-11T08:28:03.427Z,7.00
2018-07-11T08:31:13.144Z,7.30
2018-07-11T08:34:53.950Z,6.90
2018-07-11T08:38:02.346Z,7.20
2018-07-11T08:41:45.054Z,7.30
2018-07-11T08:44:24.439Z,7.47
2018-07-11T08:47:07.066Z,6.97
2018-07-11T08:49:46.844Z,7.20
2018-07-11T08:53:05.945Z,7.50
2018-07-11T08:57:52.299Z,7.92
2018-07-11T09:02:34.385Z,6.72
2018-07-11T09:06:12.936Z,7.22
2018-07-11T09:10:59.796Z,7.70
2018-07-11T09:14:43.175Z,7.10
2018-07-11T09:17:23.624Z,6.92
2018-07-11T09:20:26.005Z,7.10
2018-07-11T09:25:08.475Z,7.47
2018-07-11T09:27:36.776Z,6.95
2018-07-11T09:30:05.362Z,6.60
2018-07-11T09:32:33.788Z,6.70
2018-07-11T09:35:02.574Z,6.75
2018-07-11T09:37:30.584Z,7.30
2018-07-11T09:39:58.765Z,7.28
2018-07-11T09:42:27.074Z,5.65
2018-07-11T09:44:55.369Z,6.47
2018-07-11T09:47:27.188Z,6.30
2018-07-11T09:49:55.647Z,6.47
2018-07-11T09:52:24.179Z,6.20
2018-07-11T09:54:52.903Z,6.55
2018-07-11T09:57:21.953Z,6.60
2018-07-11T09:59:50.548Z,6.83
2018-07-11T10:02:18.992Z,6.20
2018-07-11T10:04:47.352Z,6.62
2018-07-11T10:07:15.779Z,6.87
2018-07-11T10:09:44.174Z,6.92
2018-07-11T10:12:12.818Z,7.22
2018-07-11T10:14:41.282Z,7.20
2018-07-11T10:17:09.665Z,7.45
2018-07-11T10:19:38.143Z,8.68
2018-07-11T10:22:06.786Z,10.80
2018-07-11T10:24:35.772Z,10.10
2018-07-11T10:27:03.955Z,12.00
2018-07-11T10:29:32.495Z,11.75
2018-07-11T10:32:00.888Z,12.30
2018-07-11T10:34:28.867Z,12.53
2018-07-11T10:36:57.132Z,12.75
2018-07-11T10:39:25.575Z,12.63
2018-07-11T10:41:53.769Z,12.23
2018-07-11T10:44:21.725Z,11.95
2018-07-11T10:46:54.770Z,12.50
2018-07-11T10:49:23.357Z,10.80
2018-07-11T10:51:52.246Z,10.00
2018-07-11T10:54:20.695Z,10.20
2018-07-11T10:56:49.179Z,9.90
2018-07-11T10:59:17.678Z,10.55
2018-07-11T11:01:45.803Z,11.53
2018-07-11T11:04:15.887Z,10.05
2018-07-11T11:06:44.428Z,10.53
2018-07-11T11:09:12.949Z,10.35
2018-07-11T11:11:42.062Z,9.90
2018-07-11T11:14:10.544Z,10.10
2018-07-11T11:16:39.958Z,10.00
2018-07-11T11:19:08.142Z,9.03
2018-07-11T11:21:36.782Z,8.50
2018-07-11T11:24:05.380Z,6.92
2018-07-11T11:26:34.154Z,7.90
2018-07-11T11:29:02.595Z,7.53
2018-07-11T11:31:30.994Z,9.10
2018-07-11T11:33:59.360Z,7.85
2018-07-11T11:36:27.743Z,8.18
2018-07-11T11:38:56.162Z,8.00
2018-07-11T11:41:24.474Z,7.80
2018-07-11T11:43:52.671Z,9.00
2018-07-11T11:46:21.289Z,8.90
2018-07-11T11:48:49.655Z,9.60
2018-07-11T11:51:18.171Z,9.50
2018-07-11T11:53:46.557Z,8.30
2018-07-11T11:56:14.865Z,9.00
2018-07-11T11:58:43.222Z,10.28
2018-07-11T12:01:11.543Z,12.43
2018-07-11T12:03:40.053Z,10.70
2018-07-11T12:06:09.789Z,10.32
2018-07-11T12:08:37.892Z,10.53
2018-07-11T12:11:06.288Z,9.97
2018-07-11T12:13:35.437Z,9.40
2018-07-11T12:16:05.622Z,9.77
2018-07-11T12:18:33.736Z,2.95
2018-07-11T12:21:02.287Z,2.70
2018-07-11T12:23:31.155Z,2.30
2018-07-11T12:26:10.202Z,1.90
2018-07-11T12:28:38.775Z,2.72
2018-07-11T12:31:06.697Z,1.70
2018-07-11T12:33:35.447Z,1.92
2018-07-11T12:36:04.156Z,2.10
2018-07-11T12:38:33.791Z,2.70
2018-07-11T12:41:02.179Z,2.40
2018-07-11T12:43:30.507Z,2.20
2018-07-11T12:45:59.021Z,2.20
2018-07-11T12:48:32.847Z,2.20
2018-07-11T12:51:01.407Z,2.00
2018-07-11T12:53:29.897Z,2.27
2018-07-11T12:55:58.446Z,2.10
2018-07-11T12:58:26.953Z,2.27
2018-07-11T13:00:55.989Z,2.33
2018-07-11T13:03:24.794Z,2.30
2018-07-11T13:05:53.276Z,2.90
2018-07-11T13:08:22.086Z,2.77
2018-07-11T13:10:50.993Z,3.12
2018-07-11T13:13:19.897Z,2.63
2018-07-11T13:15:49.020Z,2.10
2018-07-11T13:18:18.749Z,2.10
2018-07-11T13:20:47.042Z,2.40
2018-07-11T13:23:15.404Z,3.00
2018-07-11T13:25:43.733Z,2.30
2018-07-11T13:28:12.456Z,2.20
2018-07-11T13:30:40.822Z,2.27
2018-07-11T13:33:08.931Z,2.50
2018-07-11T13:35:37.425Z,2.22
2018-07-11T13:38:05.958Z,2.62
2018-07-11T13:40:34.433Z,3.35
2018-07-11T13:43:02.651Z,2.50
2018-07-11T13:45:31.249Z,2.50
2018-07-11T13:48:02.529Z,2.60
2018-07-11T13:50:32.865Z,2.60
2018-07-11T13:53:01.578Z,3.00
2018-07-11T13:55:31.715Z,2.85
2018-07-11T13:58:01.195Z,4.67
2018-07-11T14:00:30.033Z,2.80
2018-07-11T14:02:59.189Z,18.50
2018-07-11T14:05:27.620Z,9.40
2018-07-11T14:07:56.158Z,12.23
2018-07-11T14:10:24.634Z,21.27
2018-07-11T14:12:54.472Z,4.60
2018-07-11T14:15:22.784Z,2.80
2018-07-11T14:17:51.376Z,1.95
2018-07-11T14:20:19.494Z,3.00
2018-07-11T14:22:49.250Z,2.60
2018-07-11T14:25:18.642Z,2.12
2018-07-11T14:27:48.196Z,1.90
2018-07-11T14:30:16.452Z,10.08
2018-07-11T14:32:50.661Z,1.95
2018-07-11T14:35:19.386Z,2.30
2018-07-11T14:37:49.100Z,2.10
2018-07-11T14:40:17.730Z,2.10
2018-07-11T14:42:46.364Z,2.30
2018-07-11T14:45:15.139Z,2.42
2018-07-11T14:47:49.066Z,2.60
2018-07-11T14:50:17.821Z,2.70
2018-07-11T14:52:47.085Z,2.80
2018-07-11T14:55:15.499Z,3.10
2018-07-11T14:57:44.110Z,3.20
2018-07-11T15:00:12.847Z,3.00
2018-07-11T15:02:40.980Z,2.80
2018-07-11T15:05:09.595Z,3.12
2018-07-11T15:07:38.196Z,3.60
2018-07-11T15:10:07.368Z,3.30
2018-07-11T15:12:36.168Z,3.30
2018-07-11T15:15:04.938Z,3.65
2018-07-11T15:17:33.845Z,3.45
2018-07-11T15:20:02.446Z,3.20
2018-07-11T15:22:33.107Z,3.00
2018-07-11T15:25:01.557Z,2.58
2018-07-11T15:27:30.004Z,2.50
2018-07-11T15:29:58.519Z,2.70
2018-07-11T15:32:28.123Z,2.30
2018-07-11T15:34:57.341Z,2.50
2018-07-11T15:37:26.170Z,2.12
2018-07-11T15:39:55.249Z,2.62
2018-07-11T15:42:23.467Z,2.50
2018-07-11T15:44:52.752Z,2.50
2018-07-11T15:47:21.986Z,2.47
2018-07-11T15:49:50.730Z,2.42
2018-07-11T15:52:20.804Z,2.70
2018-07-11T15:54:49.342Z,2.70
2018-07-11T15:57:20.587Z,3.12
2018-07-11T15:59:53.609Z,2.90
2018-07-11T16:02:22.217Z,2.70
2018-07-11T16:04:51.301Z,2.70
2018-07-11T16:07:19.823Z,2.90
2018-07-11T16:09:49.494Z,2.55
2018-07-11T16:12:17.934Z,2.30
2018-07-11T16:14:45.831Z,2.40
2018-07-11T16:17:14.035Z,2.80
2018-07-11T16:19:42.224Z,2.75
2018-07-11T16:22:11.251Z,2.40
2018-07-11T16:24:39.831Z,3.40
2018-07-11T16:27:08.715Z,3.50
2018-07-11T16:29:37.288Z,5.20
2018-07-11T16:32:06.015Z,5.60
2018-07-11T16:34:34.503Z,6.83
2018-07-11T16:37:03.826Z,6.12
2018-07-11T16:39:32.659Z,6.55
2018-07-11T16:42:02.716Z,6.10
2018-07-11T16:44:31.454Z,6.20
2018-07-11T16:47:01.154Z,6.40
2018-07-11T16:49:30.033Z,6.50
2018-07-11T16:51:59.504Z,7.28
2018-07-11T16:54:28.173Z,8.18
2018-07-11T16:56:57.764Z,8.35
2018-07-11T17:00:34.576Z,7.60
2018-07-11T17:03:12.148Z,7.50
2018-07-11T17:05:52.829Z,7.15
2018-07-11T17:08:30.281Z,7.10
2018-07-11T17:11:21.929Z,6.78
2018-07-11T17:13:53.482Z,7.10
2018-07-11T17:16:30.214Z,7.83
2018-07-11T17:19:04.544Z,9.13
2018-07-11T17:21:52.990Z,9.40
2018-07-11T17:24:22.207Z,9.50
2018-07-11T17:26:54.195Z,8.83
2018-07-11T17:29:25.978Z,9.08
2018-07-11T17:32:02.824Z,9.00
2018-07-11T17:34:31.726Z,8.93
2018-07-11T17:37:01.619Z,9.60
2018-07-11T17:39:36.922Z,9.63
2018-07-11T17:42:05.834Z,9.30
2018-07-11T17:44:34.342Z,9.88
2018-07-11T17:47:02.460Z,10.23
2018-07-11T17:49:38.919Z,9.95
2018-07-11T17:52:08.419Z,10.48
2018-07-11T17:55:16.969Z,10.18
2018-07-11T17:57:55.077Z,9.78
2018-07-11T18:00:35.074Z,10.10
2018-07-11T18:03:13.648Z,10.00
2018-07-11T18:05:50.637Z,10.03
2018-07-11T18:08:19.038Z,10.45
2018-07-11T18:10:50.257Z,9.90
2018-07-11T18:13:55.505Z,9.60
2018-07-11T18:16:29.047Z,10.00
2018-07-11T18:19:15.321Z,9.98
2018-07-11T18:21:52.398Z,10.38
2018-07-11T18:24:55.184Z,9.73
2018-07-11T18:27:28.599Z,8.90
2018-07-11T18:32:16.412Z,9.13
2018-07-11T18:34:53.221Z,9.03
2018-07-11T18:38:30.194Z,8.90
2018-07-11T18:41:34.403Z,8.90
2018-07-11T18:44:20.962Z,8.30
2018-07-11T18:47:03.626Z,7.00
2018-07-11T18:49:37.218Z,7.60
2018-07-11T18:52:31.183Z,6.70
2018-07-11T18:55:14.848Z,10.38
2018-07-11T18:57:55.625Z,7.30
2018-07-11T19:01:01.970Z,6.57
2018-07-11T19:03:37.114Z,6.20
2018-07-11T19:06:11.767Z,5.90
2018-07-11T19:09:52.959Z,6.08
2018-07-11T19:12:32.327Z,6.12
2018-07-11T19:15:14.412Z,5.30
2018-07-11T19:17:46.697Z,5.70
2018-07-11T19:21:22.199Z,5.42
2018-07-11T19:24:05.888Z,6.20
2018-07-11T19:29:48.346Z,5.70
2018-07-11T19:32:21.862Z,6.10
2018-07-11T19:35:59.446Z,5.90
2018-07-11T19:38:40.398Z,6.85
2018-07-11T19:41:21.463Z,5.80
2018-07-11T19:46:04.761Z,5.85
2018-07-11T19:48:47.788Z,5.60
2018-07-11T19:52:36.446Z,5.70
2018-07-11T19:55:17.259Z,5.20
2018-07-11T19:57:45.955Z,5.20
2018-07-11T20:00:14.217Z,5.30
2018-07-11T20:02:42.750Z,5.50
2018-07-11T20:05:11.027Z,5.30
2018-07-11T20:07:40.237Z,5.20
2018-07-11T20:10:08.960Z,5.70
2018-07-11T20:12:38.027Z,5.30
2018-07-11T20:15:06.525Z,5.40
2018-07-11T20:17:34.969Z,5.00
2018-07-11T20:20:03.472Z,5.58
2018-07-11T20:22:32.159Z,5.70
2018-07-11T20:25:00.605Z,4.72
2018-07-11T20:27:28.867Z,4.85
2018-07-11T20:29:57.300Z,5.10
2018-07-11T20:32:25.708Z,4.90
2018-07-11T20:34:54.061Z,5.20
2018-07-11T20:37:23.310Z,5.00
2018-07-11T20:39:51.824Z,5.10
2018-07-11T20:42:20.208Z,5.20
2018-07-11T20:44:48.772Z,4.42
2018-07-11T20:47:17.504Z,4.97
2018-07-11T20:49:45.859Z,5.08
2018-07-11T20:52:14.418Z,5.30
2018-07-11T20:54:42.445Z,5.25
2018-07-11T20:57:10.699Z,5.25
2018-07-11T20:59:44.327Z,5.50
2018-07-11T21:02:17.835Z,5.40
2018-07-11T21:04:51.013Z,5.60
2018-07-11T21:07:34.216Z,5.60
2018-07-11T21:11:13.453Z,5.87
2018-07-11T21:14:58.448Z,5.72
2018-07-11T21:17:31.945Z,6.20
2018-07-11T21:19:59.939Z,6.08
2018-07-11T21:22:28.252Z,6.20
2018-07-11T21:24:57.371Z,5.90
2018-07-11T21:27:25.640Z,6.15
2018-07-11T21:29:53.964Z,5.73
2018-07-11T21:32:22.336Z,6.30
2018-07-11T21:34:50.748Z,6.20
2018-07-11T21:37:18.957Z,5.90
2018-07-11T21:39:47.229Z,6.20
2018-07-11T21:42:15.546Z,6.12
2018-07-11T21:44:44.042Z,6.40
2018-07-11T21:47:12.047Z,6.20
2018-07-11T21:49:40.219Z,6.50
2018-07-11T21:52:08.541Z,6.50
2018-07-11T21:54:37.367Z,6.45
2018-07-11T21:57:05.645Z,5.92
2018-07-11T21:59:34.138Z,6.00
2018-07-11T22:02:02.529Z,6.55
2018-07-11T22:04:30.722Z,6.40
2018-07-11T22:06:59.035Z,6.47
2018-07-11T22:09:27.415Z,6.45
2018-07-11T22:11:59.311Z,6.60
2018-07-11T22:14:27.595Z,6.40
2018-07-11T22:16:57.307Z,6.80
2018-07-11T22:19:37.601Z,6.50
2018-07-11T22:22:04.760Z,6.55
2018-07-11T22:24:32.156Z,6.78
2018-07-11T22:26:59.014Z,6.90
2018-07-11T22:29:28.925Z,6.60
2018-07-11T22:31:55.920Z,6.90
2018-07-11T22:34:22.887Z,6.90
2018-07-11T22:36:49.751Z,6.40
2018-07-11T22:39:17.209Z,7.20
2018-07-11T22:41:44.200Z,6.90
2018-07-11T22:44:11.019Z,7.40
2018-07-11T22:46:38.034Z,7.00
2018-07-11T22:49:05.408Z,6.75
2018-07-11T22:51:32.951Z,6.90
2018-07-11T22:53:59.955Z,7.00
2018-07-11T22:56:27.215Z,6.70
2018-07-11T22:58:54.071Z,7.53
2018-07-11T23:01:20.959Z,7.03
2018-07-11T23:03:48.343Z,6.90
2018-07-11T23:06:16.306Z,7.17
2018-07-11T23:08:43.094Z,7.22
2018-07-11T23:11:11.020Z,7.40
2018-07-11T23:13:38.053Z,6.80
2018-07-11T23:16:05.429Z,7.22
2018-07-11T23:18:32.487Z,7.42
2018-07-11T23:20:59.770Z,7.20
2018-07-11T23:23:26.644Z,7.35
2018-07-11T23:25:53.500Z,7.50
2018-07-11T23:28:20.266Z,7.70
2018-07-11T23:30:47.544Z,7.60
2018-07-11T23:33:14.384Z,7.30
2018-07-11T23:35:43.311Z,7.70
2018-07-11T23:38:10.460Z,6.92
2018-07-11T23:40:37.362Z,7.00
2018-07-11T23:43:04.187Z,7.30
2018-07-11T23:45:31.791Z,7.25
2018-07-11T23:47:59.060Z,7.10
2018-07-11T23:50:25.824Z,7.00
2018-07-11T23:52:52.615Z,7.00
2018-07-11T23:55:19.559Z,7.60
2018-07-11T23:57:46.828Z,7.62
